sensor_id;sensor_type;location;lat;lon;timestamp;P1;durP1;ratioP1;P2;durP2;ratioP2
6217;SDS011;3142;48.206;11.550;2023-05-27T00:01:36;13.17;;;7.37;;
6217;SDS011;3142;48.206;11.550;2023-05-27T00:04:03;7.93;;;6.37;;
6217;SDS011;3142;48.206;11.550;2023-05-27T00:06:29;10.73;;;6.47;;
6217;SDS011;3142;48.206;11.550;2023-05-27T00:08:57;7.33;;;6.47;;
6217;SDS011;3142;48.206;11.550;2023-05-27T00:11:24;8.63;;;6.10;;
6217;SDS011;3142;48.206;11.550;2023-05-27T00:13:50;8.13;;;6.33;;
6217;SDS011;3142;48.206;11.550;2023-05-27T00:16:17;12.30;;;6.60;;
6217;SDS011;3142;48.206;11.550;2023-05-27T00:18:45;12.37;;;6.93;;
6217;SDS011;3142;48.206;11.550;2023-05-27T00:21:12;11.43;;;5.83;;
6217;SDS011;3142;48.206;11.550;2023-05-27T00:23:38;9.83;;;6.40;;
6217;SDS011;3142;48.206;11.550;2023-05-27T00:26:06;11.87;;;6.57;;
6217;SDS011;3142;48.206;11.550;2023-05-27T00:28:33;11.50;;;6.67;;
6217;SDS011;3142;48.206;11.550;2023-05-27T00:30:59;9.93;;;6.30;;
6217;SDS011;3142;48.206;11.550;2023-05-27T00:33:25;9.07;;;6.23;;
6217;SDS011;3142;48.206;11.550;2023-05-27T00:35:52;9.23;;;6.83;;
6217;SDS011;3142;48.206;11.550;2023-05-27T00:38:18;10.67;;;6.50;;
6217;SDS011;3142;48.206;11.550;2023-05-27T00:40:45;11.43;;;6.33;;
6217;SDS011;3142;48.206;11.550;2023-05-27T00:43:13;9.50;;;6.87;;
6217;SDS011;3142;48.206;11.550;2023-05-27T00:45:40;12.33;;;6.73;;
6217;SDS011;3142;48.206;11.550;2023-05-27T00:48:06;13.47;;;7.13;;
6217;SDS011;3142;48.206;11.550;2023-05-27T00:50:33;9.50;;;6.50;;
6217;SDS011;3142;48.206;11.550;2023-05-27T00:53:00;11.23;;;6.93;;
6217;SDS011;3142;48.206;11.550;2023-05-27T00:55:27;8.23;;;6.20;;
6217;SDS011;3142;48.206;11.550;2023-05-27T00:57:53;9.03;;;7.00;;
6217;SDS011;3142;48.206;11.550;2023-05-27T01:00:21;8.80;;;6.20;;
6217;SDS011;3142;48.206;11.550;2023-05-27T01:02:48;10.17;;;7.00;;
6217;SDS011;3142;48.206;11.550;2023-05-27T01:05:16;7.13;;;6.27;;
6217;SDS011;3142;48.206;11.550;2023-05-27T01:07:50;10.13;;;7.17;;
6217;SDS011;3142;48.206;11.550;2023-05-27T01:10:29;8.57;;;6.63;;
6217;SDS011;3142;48.206;11.550;2023-05-27T01:13:05;10.30;;;6.43;;
6217;SDS011;3142;48.206;11.550;2023-05-27T01:15:37;7.93;;;6.57;;
6217;SDS011;3142;48.206;11.550;2023-05-27T01:18:05;9.93;;;7.10;;
6217;SDS011;3142;48.206;11.550;2023-05-27T01:20:33;9.63;;;6.70;;
6217;SDS011;3142;48.206;11.550;2023-05-27T01:23:07;9.93;;;6.53;;
6217;SDS011;3142;48.206;11.550;2023-05-27T01:25:33;9.57;;;6.97;;
6217;SDS011;3142;48.206;11.550;2023-05-27T01:28:00;9.80;;;6.50;;
6217;SDS011;3142;48.206;11.550;2023-05-27T01:30:27;9.73;;;6.47;;
6217;SDS011;3142;48.206;11.550;2023-05-27T01:32:55;8.70;;;6.53;;
6217;SDS011;3142;48.206;11.550;2023-05-27T01:35:27;10.67;;;6.70;;
6217;SDS011;3142;48.206;11.550;2023-05-27T01:37:57;7.10;;;6.20;;
6217;SDS011;3142;48.206;11.550;2023-05-27T01:40:27;11.53;;;7.07;;
6217;SDS011;3142;48.206;11.550;2023-05-27T01:42:54;9.07;;;6.70;;
6217;SDS011;3142;48.206;11.550;2023-05-27T01:45:23;8.47;;;6.30;;
6217;SDS011;3142;48.206;11.550;2023-05-27T01:47:51;10.57;;;6.60;;
6217;SDS011;3142;48.206;11.550;2023-05-27T01:50:17;8.93;;;7.03;;
6217;SDS011;3142;48.206;11.550;2023-05-27T01:52:44;9.17;;;6.50;;
6217;SDS011;3142;48.206;11.550;2023-05-27T01:55:11;12.47;;;6.90;;
6217;SDS011;3142;48.206;11.550;2023-05-27T01:57:39;13.57;;;6.80;;
6217;SDS011;3142;48.206;11.550;2023-05-27T02:00:05;8.80;;;7.03;;
6217;SDS011;3142;48.206;11.550;2023-05-27T02:02:34;9.03;;;6.67;;
6217;SDS011;3142;48.206;11.550;2023-05-27T02:05:01;9.40;;;6.73;;
6217;SDS011;3142;48.206;11.550;2023-05-27T02:07:27;7.93;;;6.30;;
6217;SDS011;3142;48.206;11.550;2023-05-27T02:09:54;13.23;;;6.30;;
6217;SDS011;3142;48.206;11.550;2023-05-27T02:12:20;10.30;;;6.97;;
6217;SDS011;3142;48.206;11.550;2023-05-27T02:14:48;10.00;;;7.07;;
6217;SDS011;3142;48.206;11.550;2023-05-27T02:17:16;9.53;;;6.60;;
6217;SDS011;3142;48.206;11.550;2023-05-27T02:19:42;9.20;;;6.83;;
6217;SDS011;3142;48.206;11.550;2023-05-27T02:22:10;9.80;;;6.30;;
6217;SDS011;3142;48.206;11.550;2023-05-27T02:24:36;13.60;;;6.80;;
6217;SDS011;3142;48.206;11.550;2023-05-27T02:27:03;11.20;;;6.47;;
6217;SDS011;3142;48.206;11.550;2023-05-27T02:29:30;7.90;;;6.93;;
6217;SDS011;3142;48.206;11.550;2023-05-27T02:31:58;9.03;;;6.93;;
6217;SDS011;3142;48.206;11.550;2023-05-27T02:34:24;9.40;;;7.10;;
6217;SDS011;3142;48.206;11.550;2023-05-27T02:36:51;9.83;;;6.87;;
6217;SDS011;3142;48.206;11.550;2023-05-27T02:39:17;10.97;;;6.73;;
6217;SDS011;3142;48.206;11.550;2023-05-27T02:41:44;10.03;;;6.93;;
6217;SDS011;3142;48.206;11.550;2023-05-27T02:44:11;9.83;;;6.80;;
6217;SDS011;3142;48.206;11.550;2023-05-27T02:46:37;13.97;;;7.27;;
6217;SDS011;3142;48.206;11.550;2023-05-27T02:49:05;9.13;;;7.00;;
6217;SDS011;3142;48.206;11.550;2023-05-27T02:51:31;12.03;;;7.37;;
6217;SDS011;3142;48.206;11.550;2023-05-27T02:53:58;12.03;;;7.00;;
6217;SDS011;3142;48.206;11.550;2023-05-27T02:56:24;9.97;;;6.73;;
6217;SDS011;3142;48.206;11.550;2023-05-27T02:58:51;13.83;;;7.60;;
6217;SDS011;3142;48.206;11.550;2023-05-27T03:01:17;12.73;;;7.53;;
6217;SDS011;3142;48.206;11.550;2023-05-27T03:03:44;10.90;;;6.33;;
6217;SDS011;3142;48.206;11.550;2023-05-27T03:06:12;10.77;;;7.40;;
6217;SDS011;3142;48.206;11.550;2023-05-27T03:08:39;11.20;;;6.73;;
6217;SDS011;3142;48.206;11.550;2023-05-27T03:11:05;11.67;;;7.50;;
6217;SDS011;3142;48.206;11.550;2023-05-27T03:13:31;23.37;;;15.73;;
6217;SDS011;3142;48.206;11.550;2023-05-27T03:15:58;77.27;;;54.13;;
6217;SDS011;3142;48.206;11.550;2023-05-27T03:18:25;43.37;;;31.43;;
6217;SDS011;3142;48.206;11.550;2023-05-27T03:20:51;42.70;;;33.33;;
6217;SDS011;3142;48.206;11.550;2023-05-27T03:23:19;41.30;;;32.30;;
6217;SDS011;3142;48.206;11.550;2023-05-27T03:25:45;19.07;;;14.53;;
6217;SDS011;3142;48.206;11.550;2023-05-27T03:28:12;11.03;;;8.97;;
6217;SDS011;3142;48.206;11.550;2023-05-27T03:30:38;13.57;;;8.57;;
6217;SDS011;3142;48.206;11.550;2023-05-27T03:33:05;13.33;;;8.30;;
6217;SDS011;3142;48.206;11.550;2023-05-27T03:35:32;18.90;;;7.80;;
6217;SDS011;3142;48.206;11.550;2023-05-27T03:37:58;15.67;;;11.00;;
6217;SDS011;3142;48.206;11.550;2023-05-27T03:40:26;33.87;;;26.17;;
6217;SDS011;3142;48.206;11.550;2023-05-27T03:42:53;86.10;;;58.63;;
6217;SDS011;3142;48.206;11.550;2023-05-27T03:45:19;28.23;;;20.60;;
6217;SDS011;3142;48.206;11.550;2023-05-27T03:47:46;17.83;;;10.80;;
6217;SDS011;3142;48.206;11.550;2023-05-27T03:50:12;13.97;;;9.37;;
6217;SDS011;3142;48.206;11.550;2023-05-27T03:52:38;60.90;;;40.97;;
6217;SDS011;3142;48.206;11.550;2023-05-27T03:55:05;31.50;;;23.60;;
6217;SDS011;3142;48.206;11.550;2023-05-27T03:57:33;31.03;;;21.13;;
6217;SDS011;3142;48.206;11.550;2023-05-27T04:00:00;15.83;;;11.17;;
6217;SDS011;3142;48.206;11.550;2023-05-27T04:02:27;16.93;;;11.57;;
6217;SDS011;3142;48.206;11.550;2023-05-27T04:04:53;81.33;;;52.00;;
6217;SDS011;3142;48.206;11.550;2023-05-27T04:07:20;92.30;;;58.07;;
6217;SDS011;3142;48.206;11.550;2023-05-27T04:09:51;24.60;;;16.43;;
6217;SDS011;3142;48.206;11.550;2023-05-27T04:12:18;11.43;;;8.20;;
6217;SDS011;3142;48.206;11.550;2023-05-27T04:14:45;10.20;;;7.43;;
6217;SDS011;3142;48.206;11.550;2023-05-27T04:17:12;11.83;;;6.97;;
6217;SDS011;3142;48.206;11.550;2023-05-27T04:19:39;12.63;;;7.37;;
6217;SDS011;3142;48.206;11.550;2023-05-27T04:22:06;8.40;;;7.13;;
6217;SDS011;3142;48.206;11.550;2023-05-27T04:24:33;10.93;;;7.60;;
6217;SDS011;3142;48.206;11.550;2023-05-27T04:26:59;11.67;;;8.03;;
6217;SDS011;3142;48.206;11.550;2023-05-27T04:29:26;10.57;;;6.70;;
6217;SDS011;3142;48.206;11.550;2023-05-27T04:31:54;13.00;;;6.80;;
6217;SDS011;3142;48.206;11.550;2023-05-27T04:34:21;8.87;;;6.80;;
6217;SDS011;3142;48.206;11.550;2023-05-27T04:36:48;9.77;;;7.17;;
6217;SDS011;3142;48.206;11.550;2023-05-27T04:39:14;10.13;;;6.67;;
6217;SDS011;3142;48.206;11.550;2023-05-27T04:41:41;12.60;;;7.57;;
6217;SDS011;3142;48.206;11.550;2023-05-27T04:44:08;10.47;;;7.33;;
6217;SDS011;3142;48.206;11.550;2023-05-27T04:46:34;10.13;;;6.37;;
6217;SDS011;3142;48.206;11.550;2023-05-27T04:49:05;11.40;;;6.83;;
6217;SDS011;3142;48.206;11.550;2023-05-27T04:51:31;10.40;;;5.97;;
6217;SDS011;3142;48.206;11.550;2023-05-27T04:54:00;11.43;;;7.27;;
6217;SDS011;3142;48.206;11.550;2023-05-27T04:56:27;11.00;;;6.23;;
6217;SDS011;3142;48.206;11.550;2023-05-27T04:58:54;10.30;;;6.23;;
6217;SDS011;3142;48.206;11.550;2023-05-27T05:01:21;8.70;;;6.20;;
6217;SDS011;3142;48.206;11.550;2023-05-27T05:03:50;11.90;;;6.90;;
6217;SDS011;3142;48.206;11.550;2023-05-27T05:06:37;9.23;;;6.33;;
6217;SDS011;3142;48.206;11.550;2023-05-27T05:09:04;8.97;;;5.63;;
6217;SDS011;3142;48.206;11.550;2023-05-27T05:11:32;9.93;;;6.03;;
6217;SDS011;3142;48.206;11.550;2023-05-27T05:13:59;9.77;;;6.20;;
6217;SDS011;3142;48.206;11.550;2023-05-27T05:16:25;10.03;;;6.47;;
6217;SDS011;3142;48.206;11.550;2023-05-27T05:18:52;11.60;;;6.33;;
6217;SDS011;3142;48.206;11.550;2023-05-27T05:21:18;10.27;;;6.33;;
6217;SDS011;3142;48.206;11.550;2023-05-27T05:23:46;8.87;;;6.60;;
6217;SDS011;3142;48.206;11.550;2023-05-27T05:26:12;9.77;;;5.47;;
6217;SDS011;3142;48.206;11.550;2023-05-27T05:28:39;11.03;;;6.30;;
6217;SDS011;3142;48.206;11.550;2023-05-27T05:31:05;12.20;;;6.13;;
6217;SDS011;3142;48.206;11.550;2023-05-27T05:33:32;9.47;;;5.87;;
6217;SDS011;3142;48.206;11.550;2023-05-27T05:35:58;10.97;;;5.87;;
6217;SDS011;3142;48.206;11.550;2023-05-27T05:38:25;9.30;;;6.03;;
6217;SDS011;3142;48.206;11.550;2023-05-27T05:40:53;13.83;;;6.13;;
6217;SDS011;3142;48.206;11.550;2023-05-27T05:43:20;12.23;;;6.10;;
6217;SDS011;3142;48.206;11.550;2023-05-27T05:45:46;10.57;;;5.40;;
6217;SDS011;3142;48.206;11.550;2023-05-27T05:48:12;8.47;;;5.50;;
6217;SDS011;3142;48.206;11.550;2023-05-27T05:50:39;9.83;;;5.33;;
6217;SDS011;3142;48.206;11.550;2023-05-27T05:53:05;12.50;;;5.83;;
6217;SDS011;3142;48.206;11.550;2023-05-27T05:55:32;10.57;;;6.20;;
6217;SDS011;3142;48.206;11.550;2023-05-27T05:58:00;10.03;;;5.90;;
6217;SDS011;3142;48.206;11.550;2023-05-27T06:00:26;11.83;;;5.80;;
6217;SDS011;3142;48.206;11.550;2023-05-27T06:02:53;14.43;;;6.37;;
6217;SDS011;3142;48.206;11.550;2023-05-27T06:05:19;8.33;;;6.03;;
6217;SDS011;3142;48.206;11.550;2023-05-27T06:07:47;10.63;;;6.07;;
6217;SDS011;3142;48.206;11.550;2023-05-27T06:10:13;12.33;;;6.30;;
6217;SDS011;3142;48.206;11.550;2023-05-27T06:12:41;12.03;;;6.03;;
6217;SDS011;3142;48.206;11.550;2023-05-27T06:15:10;10.37;;;6.57;;
6217;SDS011;3142;48.206;11.550;2023-05-27T06:17:37;11.00;;;6.50;;
6217;SDS011;3142;48.206;11.550;2023-05-27T06:20:04;12.47;;;6.53;;
6217;SDS011;3142;48.206;11.550;2023-05-27T06:22:32;12.80;;;6.40;;
6217;SDS011;3142;48.206;11.550;2023-05-27T06:24:58;10.50;;;5.63;;
6217;SDS011;3142;48.206;11.550;2023-05-27T06:27:24;11.53;;;5.93;;
6217;SDS011;3142;48.206;11.550;2023-05-27T06:29:51;14.30;;;5.53;;
6217;SDS011;3142;48.206;11.550;2023-05-27T06:32:19;9.23;;;5.23;;
6217;SDS011;3142;48.206;11.550;2023-05-27T06:34:45;10.20;;;5.10;;
6217;SDS011;3142;48.206;11.550;2023-05-27T06:37:11;11.43;;;5.53;;
6217;SDS011;3142;48.206;11.550;2023-05-27T06:39:38;15.87;;;5.87;;
6217;SDS011;3142;48.206;11.550;2023-05-27T06:42:04;22.10;;;10.73;;
6217;SDS011;3142;48.206;11.550;2023-05-27T06:44:31;13.57;;;7.20;;
6217;SDS011;3142;48.206;11.550;2023-05-27T06:46:57;14.67;;;6.63;;
6217;SDS011;3142;48.206;11.550;2023-05-27T06:49:25;12.90;;;5.47;;
6217;SDS011;3142;48.206;11.550;2023-05-27T06:51:52;13.63;;;5.17;;
6217;SDS011;3142;48.206;11.550;2023-05-27T06:54:18;8.10;;;4.80;;
6217;SDS011;3142;48.206;11.550;2023-05-27T06:56:45;11.67;;;5.40;;
6217;SDS011;3142;48.206;11.550;2023-05-27T06:59:11;11.30;;;5.10;;
6217;SDS011;3142;48.206;11.550;2023-05-27T07:01:37;12.97;;;5.20;;
6217;SDS011;3142;48.206;11.550;2023-05-27T07:04:04;10.73;;;4.93;;
6217;SDS011;3142;48.206;11.550;2023-05-27T07:06:32;10.10;;;5.67;;
6217;SDS011;3142;48.206;11.550;2023-05-27T07:08:58;12.73;;;5.33;;
6217;SDS011;3142;48.206;11.550;2023-05-27T07:11:25;10.83;;;5.30;;
6217;SDS011;3142;48.206;11.550;2023-05-27T07:13:51;9.50;;;4.53;;
6217;SDS011;3142;48.206;11.550;2023-05-27T07:16:18;9.67;;;5.23;;
6217;SDS011;3142;48.206;11.550;2023-05-27T07:18:45;9.37;;;4.70;;
6217;SDS011;3142;48.206;11.550;2023-05-27T07:21:11;12.40;;;5.73;;
6217;SDS011;3142;48.206;11.550;2023-05-27T07:23:39;10.97;;;4.73;;
6217;SDS011;3142;48.206;11.550;2023-05-27T07:26:05;12.57;;;4.83;;
6217;SDS011;3142;48.206;11.550;2023-05-27T07:28:32;17.07;;;5.67;;
6217;SDS011;3142;48.206;11.550;2023-05-27T07:30:58;8.43;;;4.07;;
6217;SDS011;3142;48.206;11.550;2023-05-27T07:33:25;14.47;;;5.20;;
6217;SDS011;3142;48.206;11.550;2023-05-27T07:35:51;10.57;;;4.77;;
6217;SDS011;3142;48.206;11.550;2023-05-27T07:38:17;11.13;;;5.10;;
6217;SDS011;3142;48.206;11.550;2023-05-27T07:40:45;10.70;;;5.03;;
6217;SDS011;3142;48.206;11.550;2023-05-27T07:43:12;10.77;;;5.10;;
6217;SDS011;3142;48.206;11.550;2023-05-27T07:45:38;8.53;;;5.10;;
6217;SDS011;3142;48.206;11.550;2023-05-27T07:48:04;19.40;;;12.23;;
6217;SDS011;3142;48.206;11.550;2023-05-27T07:50:31;16.67;;;8.13;;
6217;SDS011;3142;48.206;11.550;2023-05-27T07:52:57;21.77;;;13.10;;
6217;SDS011;3142;48.206;11.550;2023-05-27T07:55:24;16.57;;;5.83;;
6217;SDS011;3142;48.206;11.550;2023-05-27T07:57:52;10.20;;;5.40;;
6217;SDS011;3142;48.206;11.550;2023-05-27T08:00:19;8.30;;;4.90;;
6217;SDS011;3142;48.206;11.550;2023-05-27T08:02:46;8.90;;;5.00;;
6217;SDS011;3142;48.206;11.550;2023-05-27T08:05:12;13.70;;;5.23;;
6217;SDS011;3142;48.206;11.550;2023-05-27T08:07:39;11.47;;;4.90;;
6217;SDS011;3142;48.206;11.550;2023-05-27T08:10:05;13.02;;;5.22;;
6217;SDS011;3142;48.206;11.550;2023-05-27T08:12:33;10.40;;;5.45;;
6217;SDS011;3142;48.206;11.550;2023-05-27T08:15:01;9.90;;;4.78;;
6217;SDS011;3142;48.206;11.550;2023-05-27T08:17:27;12.15;;;5.32;;
6217;SDS011;3142;48.206;11.550;2023-05-27T08:19:54;14.00;;;5.65;;
6217;SDS011;3142;48.206;11.550;2023-05-27T08:22:20;11.27;;;4.82;;
6217;SDS011;3142;48.206;11.550;2023-05-27T08:24:47;14.63;;;5.10;;
6217;SDS011;3142;48.206;11.550;2023-05-27T08:27:15;10.60;;;5.07;;
6217;SDS011;3142;48.206;11.550;2023-05-27T08:29:42;8.98;;;4.63;;
6217;SDS011;3142;48.206;11.550;2023-05-27T08:32:10;13.70;;;7.15;;
6217;SDS011;3142;48.206;11.550;2023-05-27T08:34:36;9.95;;;5.82;;
6217;SDS011;3142;48.206;11.550;2023-05-27T08:37:03;12.10;;;6.25;;
6217;SDS011;3142;48.206;11.550;2023-05-27T08:39:30;8.68;;;4.40;;
6217;SDS011;3142;48.206;11.550;2023-05-27T08:41:57;9.93;;;4.88;;
6217;SDS011;3142;48.206;11.550;2023-05-27T08:44:25;8.05;;;4.20;;
6217;SDS011;3142;48.206;11.550;2023-05-27T08:46:51;11.07;;;5.07;;
6217;SDS011;3142;48.206;11.550;2023-05-27T08:49:19;12.20;;;5.05;;
6217;SDS011;3142;48.206;11.550;2023-05-27T08:51:46;11.80;;;4.97;;
6217;SDS011;3142;48.206;11.550;2023-05-27T08:54:12;9.88;;;4.60;;
6217;SDS011;3142;48.206;11.550;2023-05-27T08:56:39;11.80;;;5.50;;
6217;SDS011;3142;48.206;11.550;2023-05-27T08:59:06;10.18;;;6.35;;
6217;SDS011;3142;48.206;11.550;2023-05-27T09:01:33;12.05;;;7.00;;
6217;SDS011;3142;48.206;11.550;2023-05-27T09:04:00;10.18;;;4.75;;
6217;SDS011;3142;48.206;11.550;2023-05-27T09:06:28;9.63;;;5.03;;
6217;SDS011;3142;48.206;11.550;2023-05-27T09:08:54;11.65;;;5.97;;
6217;SDS011;3142;48.206;11.550;2023-05-27T09:11:22;13.18;;;5.57;;
6217;SDS011;3142;48.206;11.550;2023-05-27T09:13:50;9.85;;;5.43;;
6217;SDS011;3142;48.206;11.550;2023-05-27T09:16:20;10.82;;;5.85;;
6217;SDS011;3142;48.206;11.550;2023-05-27T09:18:47;14.07;;;6.68;;
6217;SDS011;3142;48.206;11.550;2023-05-27T09:21:14;12.85;;;5.75;;
6217;SDS011;3142;48.206;11.550;2023-05-27T09:23:42;14.65;;;9.80;;
6217;SDS011;3142;48.206;11.550;2023-05-27T09:26:08;9.00;;;5.10;;
6217;SDS011;3142;48.206;11.550;2023-05-27T09:28:36;10.95;;;5.60;;
6217;SDS011;3142;48.206;11.550;2023-05-27T09:31:03;13.27;;;5.47;;
6217;SDS011;3142;48.206;11.550;2023-05-27T09:33:31;8.13;;;5.15;;
6217;SDS011;3142;48.206;11.550;2023-05-27T09:35:58;9.77;;;5.32;;
6217;SDS011;3142;48.206;11.550;2023-05-27T09:38:27;9.73;;;5.50;;
6217;SDS011;3142;48.206;11.550;2023-05-27T09:40:55;11.90;;;5.82;;
6217;SDS011;3142;48.206;11.550;2023-05-27T09:43:23;11.43;;;5.40;;
6217;SDS011;3142;48.206;11.550;2023-05-27T09:45:50;9.90;;;5.18;;
6217;SDS011;3142;48.206;11.550;2023-05-27T09:48:18;11.10;;;5.15;;
6217;SDS011;3142;48.206;11.550;2023-05-27T09:50:45;14.73;;;5.57;;
6217;SDS011;3142;48.206;11.550;2023-05-27T09:53:13;9.73;;;5.20;;
6217;SDS011;3142;48.206;11.550;2023-05-27T09:55:40;11.57;;;5.32;;
6217;SDS011;3142;48.206;11.550;2023-05-27T09:58:08;8.80;;;5.05;;
6217;SDS011;3142;48.206;11.550;2023-05-27T10:00:35;13.60;;;4.85;;
6217;SDS011;3142;48.206;11.550;2023-05-27T10:03:04;8.88;;;4.82;;
6217;SDS011;3142;48.206;11.550;2023-05-27T10:05:32;15.45;;;5.60;;
6217;SDS011;3142;48.206;11.550;2023-05-27T10:07:59;8.90;;;5.30;;
6217;SDS011;3142;48.206;11.550;2023-05-27T10:10:26;9.30;;;5.05;;
6217;SDS011;3142;48.206;11.550;2023-05-27T10:12:53;9.45;;;4.82;;
6217;SDS011;3142;48.206;11.550;2023-05-27T10:15:23;7.25;;;4.88;;
6217;SDS011;3142;48.206;11.550;2023-05-27T10:17:52;10.75;;;5.43;;
6217;SDS011;3142;48.206;11.550;2023-05-27T10:20:26;9.40;;;4.95;;
6217;SDS011;3142;48.206;11.550;2023-05-27T10:22:53;7.47;;;4.80;;
6217;SDS011;3142;48.206;11.550;2023-05-27T10:25:21;7.72;;;5.32;;
6217;SDS011;3142;48.206;11.550;2023-05-27T10:27:48;7.32;;;4.88;;
6217;SDS011;3142;48.206;11.550;2023-05-27T10:30:15;13.80;;;4.70;;
6217;SDS011;3142;48.206;11.550;2023-05-27T10:32:44;8.85;;;4.22;;
6217;SDS011;3142;48.206;11.550;2023-05-27T10:35:13;8.88;;;4.60;;
6217;SDS011;3142;48.206;11.550;2023-05-27T10:37:41;10.43;;;4.88;;
6217;SDS011;3142;48.206;11.550;2023-05-27T10:40:08;8.60;;;4.57;;
6217;SDS011;3142;48.206;11.550;2023-05-27T10:42:36;6.35;;;5.03;;
6217;SDS011;3142;48.206;11.550;2023-05-27T10:45:06;8.75;;;4.45;;
6217;SDS011;3142;48.206;11.550;2023-05-27T10:47:36;9.38;;;5.05;;
6217;SDS011;3142;48.206;11.550;2023-05-27T10:50:11;7.57;;;4.28;;
6217;SDS011;3142;48.206;11.550;2023-05-27T10:52:39;7.30;;;5.03;;
6217;SDS011;3142;48.206;11.550;2023-05-27T10:55:06;9.63;;;5.32;;
6217;SDS011;3142;48.206;11.550;2023-05-27T10:57:34;8.77;;;4.32;;
6217;SDS011;3142;48.206;11.550;2023-05-27T11:00:01;10.63;;;4.57;;
6217;SDS011;3142;48.206;11.550;2023-05-27T11:02:33;8.43;;;4.97;;
6217;SDS011;3142;48.206;11.550;2023-05-27T11:05:07;11.63;;;4.95;;
6217;SDS011;3142;48.206;11.550;2023-05-27T11:07:37;8.57;;;4.53;;
6217;SDS011;3142;48.206;11.550;2023-05-27T11:10:05;8.70;;;4.63;;
6217;SDS011;3142;48.206;11.550;2023-05-27T11:12:32;8.60;;;4.10;;
6217;SDS011;3142;48.206;11.550;2023-05-27T11:14:59;9.23;;;4.80;;
6217;SDS011;3142;48.206;11.550;2023-05-27T11:17:26;8.43;;;4.43;;
6217;SDS011;3142;48.206;11.550;2023-05-27T11:19:53;10.60;;;5.35;;
6217;SDS011;3142;48.206;11.550;2023-05-27T11:22:20;11.27;;;5.10;;
6217;SDS011;3142;48.206;11.550;2023-05-27T11:24:56;8.50;;;4.82;;
6217;SDS011;3142;48.206;11.550;2023-05-27T11:27:23;6.65;;;4.20;;
6217;SDS011;3142;48.206;11.550;2023-05-27T11:29:52;9.15;;;4.72;;
6217;SDS011;3142;48.206;11.550;2023-05-27T11:32:18;8.30;;;4.85;;
6217;SDS011;3142;48.206;11.550;2023-05-27T11:34:46;7.85;;;4.65;;
6217;SDS011;3142;48.206;11.550;2023-05-27T11:37:13;10.57;;;5.00;;
6217;SDS011;3142;48.206;11.550;2023-05-27T11:39:48;7.72;;;4.68;;
6217;SDS011;3142;48.206;11.550;2023-05-27T11:42:19;9.38;;;4.80;;
6217;SDS011;3142;48.206;11.550;2023-05-27T11:44:49;14.00;;;4.80;;
6217;SDS011;3142;48.206;11.550;2023-05-27T11:47:17;12.05;;;4.82;;
6217;SDS011;3142;48.206;11.550;2023-05-27T11:49:44;6.53;;;4.47;;
6217;SDS011;3142;48.206;11.550;2023-05-27T11:52:12;6.90;;;4.28;;
6217;SDS011;3142;48.206;11.550;2023-05-27T11:54:38;7.15;;;4.55;;
6217;SDS011;3142;48.206;11.550;2023-05-27T11:57:06;7.25;;;3.70;;
6217;SDS011;3142;48.206;11.550;2023-05-27T11:59:36;10.80;;;4.88;;
6217;SDS011;3142;48.206;11.550;2023-05-27T12:02:03;9.05;;;4.55;;
6217;SDS011;3142;48.206;11.550;2023-05-27T12:04:30;7.82;;;4.22;;
6217;SDS011;3142;48.206;11.550;2023-05-27T12:06:57;9.07;;;4.40;;
6217;SDS011;3142;48.206;11.550;2023-05-27T12:09:25;7.60;;;4.15;;
6217;SDS011;3142;48.206;11.550;2023-05-27T12:11:52;8.50;;;4.22;;
6217;SDS011;3142;48.206;11.550;2023-05-27T12:14:18;15.52;;;8.60;;
6217;SDS011;3142;48.206;11.550;2023-05-27T12:16:47;11.15;;;4.68;;
6217;SDS011;3142;48.206;11.550;2023-05-27T12:19:14;10.65;;;4.78;;
6217;SDS011;3142;48.206;11.550;2023-05-27T12:21:40;10.48;;;3.90;;
6217;SDS011;3142;48.206;11.550;2023-05-27T12:24:06;7.90;;;4.00;;
6217;SDS011;3142;48.206;11.550;2023-05-27T12:26:33;8.70;;;4.38;;
6217;SDS011;3142;48.206;11.550;2023-05-27T12:29:00;7.78;;;3.58;;
6217;SDS011;3142;48.206;11.550;2023-05-27T12:31:26;8.85;;;3.97;;
6217;SDS011;3142;48.206;11.550;2023-05-27T12:34:11;5.93;;;4.05;;
6217;SDS011;3142;48.206;11.550;2023-05-27T12:36:38;7.32;;;5.13;;
6217;SDS011;3142;48.206;11.550;2023-05-27T12:39:04;9.20;;;4.13;;
6217;SDS011;3142;48.206;11.550;2023-05-27T12:41:31;9.95;;;4.28;;
6217;SDS011;3142;48.206;11.550;2023-05-27T12:43:57;6.57;;;4.28;;
6217;SDS011;3142;48.206;11.550;2023-05-27T12:46:24;6.97;;;3.95;;
6217;SDS011;3142;48.206;11.550;2023-05-27T12:48:51;8.48;;;4.30;;
6217;SDS011;3142;48.206;11.550;2023-05-27T12:51:18;10.15;;;3.75;;
6217;SDS011;3142;48.206;11.550;2023-05-27T12:53:45;10.98;;;4.57;;
6217;SDS011;3142;48.206;11.550;2023-05-27T12:56:11;6.93;;;3.88;;
6217;SDS011;3142;48.206;11.550;2023-05-27T12:58:38;8.75;;;4.07;;
6217;SDS011;3142;48.206;11.550;2023-05-27T13:01:04;7.60;;;3.80;;
6217;SDS011;3142;48.206;11.550;2023-05-27T13:03:31;8.93;;;4.45;;
6217;SDS011;3142;48.206;11.550;2023-05-27T13:05:57;8.25;;;4.00;;
6217;SDS011;3142;48.206;11.550;2023-05-27T13:08:25;5.80;;;3.78;;
6217;SDS011;3142;48.206;11.550;2023-05-27T13:10:51;10.00;;;4.00;;
6217;SDS011;3142;48.206;11.550;2023-05-27T13:13:18;5.72;;;3.80;;
6217;SDS011;3142;48.206;11.550;2023-05-27T13:15:45;6.93;;;3.92;;
6217;SDS011;3142;48.206;11.550;2023-05-27T13:18:12;10.40;;;4.28;;
6217;SDS011;3142;48.206;11.550;2023-05-27T13:20:38;9.60;;;4.38;;
6217;SDS011;3142;48.206;11.550;2023-05-27T13:23:05;8.25;;;4.10;;
6217;SDS011;3142;48.206;11.550;2023-05-27T13:25:32;11.07;;;3.75;;
6217;SDS011;3142;48.206;11.550;2023-05-27T13:27:59;6.47;;;4.07;;
6217;SDS011;3142;48.206;11.550;2023-05-27T13:30:25;6.55;;;3.90;;
6217;SDS011;3142;48.206;11.550;2023-05-27T13:32:53;7.10;;;4.30;;
6217;SDS011;3142;48.206;11.550;2023-05-27T13:35:20;7.70;;;4.10;;
6217;SDS011;3142;48.206;11.550;2023-05-27T13:37:46;9.02;;;4.35;;
6217;SDS011;3142;48.206;11.550;2023-05-27T13:40:13;9.25;;;4.40;;
6217;SDS011;3142;48.206;11.550;2023-05-27T13:42:40;8.95;;;3.70;;
6217;SDS011;3142;48.206;11.550;2023-05-27T13:45:07;6.85;;;3.60;;
6217;SDS011;3142;48.206;11.550;2023-05-27T13:47:34;7.25;;;3.90;;
6217;SDS011;3142;48.206;11.550;2023-05-27T13:50:04;7.57;;;3.45;;
6217;SDS011;3142;48.206;11.550;2023-05-27T13:52:31;6.10;;;3.65;;
6217;SDS011;3142;48.206;11.550;2023-05-27T13:54:57;8.07;;;3.85;;
6217;SDS011;3142;48.206;11.550;2023-05-27T13:57:24;7.75;;;3.75;;
6217;SDS011;3142;48.206;11.550;2023-05-27T13:59:52;7.15;;;3.50;;
6217;SDS011;3142;48.206;11.550;2023-05-27T14:02:18;9.75;;;3.58;;
6217;SDS011;3142;48.206;11.550;2023-05-27T14:04:45;7.95;;;3.92;;
6217;SDS011;3142;48.206;11.550;2023-05-27T14:07:11;8.32;;;3.53;;
6217;SDS011;3142;48.206;11.550;2023-05-27T14:09:37;9.30;;;4.05;;
6217;SDS011;3142;48.206;11.550;2023-05-27T14:12:05;5.53;;;3.47;;
6217;SDS011;3142;48.206;11.550;2023-05-27T14:14:31;8.75;;;4.63;;
6217;SDS011;3142;48.206;11.550;2023-05-27T14:16:59;13.85;;;4.68;;
6217;SDS011;3142;48.206;11.550;2023-05-27T14:19:26;9.35;;;6.40;;
6217;SDS011;3142;48.206;11.550;2023-05-27T14:21:52;7.97;;;6.15;;
6217;SDS011;3142;48.206;11.550;2023-05-27T14:24:18;7.68;;;4.10;;
6217;SDS011;3142;48.206;11.550;2023-05-27T14:26:45;10.32;;;4.57;;
6217;SDS011;3142;48.206;11.550;2023-05-27T14:29:12;7.07;;;4.10;;
6217;SDS011;3142;48.206;11.550;2023-05-27T14:31:38;8.85;;;4.30;;
6217;SDS011;3142;48.206;11.550;2023-05-27T14:34:06;8.50;;;3.97;;
6217;SDS011;3142;48.206;11.550;2023-05-27T14:36:33;8.25;;;4.22;;
6217;SDS011;3142;48.206;11.550;2023-05-27T14:38:59;6.53;;;3.53;;
6217;SDS011;3142;48.206;11.550;2023-05-27T14:41:28;9.10;;;4.38;;
6217;SDS011;3142;48.206;11.550;2023-05-27T14:43:55;5.90;;;3.83;;
6217;SDS011;3142;48.206;11.550;2023-05-27T14:46:21;6.28;;;3.72;;
6217;SDS011;3142;48.206;11.550;2023-05-27T14:48:48;5.18;;;2.95;;
6217;SDS011;3142;48.206;11.550;2023-05-27T14:51:16;11.05;;;3.42;;
6217;SDS011;3142;48.206;11.550;2023-05-27T14:53:42;8.98;;;4.03;;